Time,TemperatureF,DewpointF,PressureIn,WindDirection,WindDirectionDegrees,WindSpeedMPH,WindSpeedGustMPH,Humidity,HourlyPrecipIn,Conditions,Clouds,dailyrainin,SoftwareType,DateUTC
2014-02-11 00:01:00,8.8,5.2,30.30,South,180,0.7,2.2,85,0.00,,,0.00,pywws,2014-02-11 05:01:00,
2014-02-11 00:02:00,8.8,5.2,30.30,South,180,0.0,0.0,85,0.00,,,0.00,pywws,2014-02-11 05:02:00,
2014-02-11 00:04:00,8.8,5.2,30.30,South,180,0.0,2.2,85,0.00,,,0.00,pywws,2014-02-11 05:04:00,
2014-02-11 00:05:00,8.8,5.2,30.30,South,180,0.7,1.6,85,0.00,,,0.00,pywws,2014-02-11 05:05:00,
2014-02-11 00:07:00,8.6,5.0,30.30,South,180,0.7,2.2,85,0.00,,,0.00,pywws,2014-02-11 05:07:00,
2014-02-11 00:12:00,8.8,5.2,30.30,SSW,202,0.7,1.6,85,0.00,,,0.00,pywws,2014-02-11 05:12:00,
2014-02-11 00:19:00,9.1,5.6,30.30,SSW,202,0.7,3.1,85,0.00,,,0.00,pywws,2014-02-11 05:19:00,
2014-02-11 00:25:00,9.7,6.1,30.30,SW,225,0.0,1.6,85,0.00,,,0.00,pywws,2014-02-11 05:25:00,
2014-02-11 00:31:00,9.9,6.0,30.30,SW,225,0.7,2.2,84,0.00,,,0.00,pywws,2014-02-11 05:31:00,
2014-02-11 00:36:00,10.0,6.2,30.30,NW,315,1.6,3.1,84,0.00,,,0.00,pywws,2014-02-11 05:36:00,
2014-02-11 00:42:00,10.2,6.4,30.30,West,270,0.0,0.7,84,0.00,,,0.00,pywws,2014-02-11 05:42:00,
2014-02-11 00:48:00,10.2,6.1,30.29,SW,225,0.7,1.6,83,0.00,,,0.00,pywws,2014-02-11 05:48:00,
2014-02-11 00:54:00,10.2,6.1,30.29,West,270,0.0,1.6,83,0.00,,,0.00,pywws,2014-02-11 05:54:00,
2014-02-11 01:00:00,10.0,5.7,30.30,South,180,0.7,3.8,82,0.00,,,0.00,pywws,2014-02-11 06:00:00,
2014-02-11 01:06:00,10.2,5.8,30.29,West,270,1.6,2.2,82,0.00,,,0.00,pywws,2014-02-11 06:06:00,
2014-02-11 01:12:00,10.4,6.0,30.29,West,270,1.6,3.1,82,0.00,,,0.00,pywws,2014-02-11 06:12:00,
2014-02-11 01:18:00,10.4,6.0,30.30,West,270,1.6,2.2,82,0.00,,,0.00,pywws,2014-02-11 06:18:00,
2014-02-11 01:24:00,10.0,5.4,30.30,West,270,2.2,4.5,81,0.00,,,0.00,pywws,2014-02-11 06:24:00,
2014-02-11 01:30:00,9.9,5.5,30.30,South,180,1.6,2.2,82,0.00,,,0.00,pywws,2014-02-11 06:30:00,
2014-02-11 01:36:00,9.7,5.3,30.30,West,270,2.2,4.5,82,0.00,,,0.00,pywws,2014-02-11 06:36:00,
2014-02-11 01:42:00,9.1,4.8,30.30,South,180,0.0,1.6,82,0.00,,,0.00,pywws,2014-02-11 06:42:00,
2014-02-11 01:48:00,8.6,4.3,30.30,South,180,0.7,2.2,82,0.00,,,0.00,pywws,2014-02-11 06:48:00,
2014-02-11 01:54:00,8.2,4.2,30.31,South,180,0.0,0.0,83,0.00,,,0.00,pywws,2014-02-11 06:54:00,
2014-02-11 02:00:00,8.1,4.2,30.31,South,180,0.0,0.7,84,0.00,,,0.00,pywws,2014-02-11 07:00:00,
2014-02-11 02:07:00,7.9,4.1,30.31,South,180,0.0,1.6,84,0.00,,,0.00,pywws,2014-02-11 07:07:00,
2014-02-11 02:13:00,7.5,4.0,30.31,South,180,0.0,0.0,85,0.00,,,0.00,pywws,2014-02-11 07:13:00,
2014-02-11 02:19:00,7.3,3.8,30.31,South,180,0.7,1.6,85,0.00,,,0.00,pywws,2014-02-11 07:19:00,
2014-02-11 02:25:00,7.3,4.0,30.31,SSW,202,0.0,0.7,86,0.00,,,0.00,pywws,2014-02-11 07:25:00,
2014-02-11 02:31:00,7.2,3.9,30.31,SE,135,0.0,0.0,86,0.00,,,0.00,pywws,2014-02-11 07:31:00,
2014-02-11 02:36:00,7.2,4.1,30.32,South,180,0.0,0.0,87,0.00,,,0.00,pywws,2014-02-11 07:36:00,
2014-02-11 02:42:00,7.0,4.2,30.31,South,180,0.7,2.2,88,0.00,,,0.00,pywws,2014-02-11 07:42:00,
2014-02-11 02:48:00,6.8,4.0,30.32,South,180,1.6,2.2,88,0.00,,,0.00,pywws,2014-02-11 07:48:00,
2014-02-11 02:54:00,6.4,3.7,30.32,SW,225,0.0,0.7,88,0.00,,,0.00,pywws,2014-02-11 07:54:00,
2014-02-11 03:01:00,6.3,3.7,30.32,SE,135,0.0,0.0,89,0.00,,,0.00,pywws,2014-02-11 08:01:00,
2014-02-11 03:06:00,6.3,3.7,30.31,East,90,0.7,1.6,89,0.00,,,0.00,pywws,2014-02-11 08:06:00,
2014-02-11 03:12:00,6.3,4.0,30.31,SW,225,0.0,1.6,90,0.00,,,0.00,pywws,2014-02-11 08:12:00,
2014-02-11 03:18:00,6.1,3.8,30.31,East,90,0.0,0.7,90,0.00,,,0.00,pywws,2014-02-11 08:18:00,
2014-02-11 03:24:00,5.9,3.6,30.31,SE,135,0.7,2.2,90,0.00,,,0.00,pywws,2014-02-11 08:24:00,
2014-02-11 03:31:00,5.7,3.7,30.32,South,180,0.0,1.6,91,0.00,,,0.00,pywws,2014-02-11 08:31:00,
2014-02-11 03:36:00,5.7,3.7,30.32,South,180,1.6,3.1,91,0.00,,,0.00,pywws,2014-02-11 08:36:00,
2014-02-11 03:43:00,5.7,3.9,30.32,SE,135,0.7,2.2,92,0.00,,,0.00,pywws,2014-02-11 08:43:00,
2014-02-11 03:48:00,5.7,3.9,30.32,South,180,1.6,3.1,92,0.00,,,0.00,pywws,2014-02-11 08:48:00,
2014-02-11 03:54:00,5.4,3.6,30.32,South,180,0.7,1.6,92,0.00,,,0.00,pywws,2014-02-11 08:54:00,
2014-02-11 04:00:00,5.2,3.4,30.32,South,180,0.7,2.2,92,0.00,,,0.00,pywws,2014-02-11 09:00:00,
2014-02-11 04:06:00,5.2,3.6,30.32,South,180,0.0,0.0,93,0.00,,,0.00,pywws,2014-02-11 09:06:00,
2014-02-11 04:12:00,5.2,3.6,30.32,South,180,1.6,3.8,93,0.00,,,0.00,pywws,2014-02-11 09:12:00,
2014-02-11 04:19:00,4.8,3.0,30.33,South,180,0.0,0.0,92,0.00,,,0.00,pywws,2014-02-11 09:19:00,
2014-02-11 04:24:00,4.6,2.8,30.33,South,180,0.7,2.2,92,0.00,,,0.00,pywws,2014-02-11 09:24:00,
2014-02-11 04:30:00,4.5,2.9,30.33,SE,135,0.7,1.6,93,0.00,,,0.00,pywws,2014-02-11 09:30:00,
2014-02-11 04:36:00,4.5,2.9,30.33,SE,135,1.6,2.2,93,0.00,,,0.00,pywws,2014-02-11 09:36:00,
2014-02-11 04:42:00,4.5,2.9,30.34,South,180,0.7,2.2,93,0.00,,,0.00,pywws,2014-02-11 09:42:00,
2014-02-11 04:48:00,4.5,3.1,30.34,SE,135,0.7,1.6,94,0.00,,,0.00,pywws,2014-02-11 09:48:00,
2014-02-11 04:53:00,4.3,2.7,30.34,SW,225,0.0,0.7,93,0.00,,,0.00,pywws,2014-02-11 09:53:00,
2014-02-11 04:58:00,4.1,2.5,30.34,SE,135,1.6,2.2,93,0.00,,,0.00,pywws,2014-02-11 09:58:00,
2014-02-11 05:04:00,4.1,2.8,30.34,SE,135,0.7,2.2,94,0.00,,,0.00,pywws,2014-02-11 10:04:00,
2014-02-11 05:10:00,3.9,2.6,30.34,South,180,0.0,1.6,94,0.00,,,0.00,pywws,2014-02-11 10:10:00,
2014-02-11 05:16:00,3.9,2.6,30.34,SE,135,0.0,1.6,94,0.00,,,0.00,pywws,2014-02-11 10:16:00,
2014-02-11 05:22:00,3.7,2.4,30.34,SE,135,0.7,1.6,94,0.00,,,0.00,pywws,2014-02-11 10:22:00,
2014-02-11 05:28:00,3.9,2.8,30.34,SE,135,1.6,2.2,95,0.00,,,0.00,pywws,2014-02-11 10:28:00,
2014-02-11 05:34:00,3.9,2.6,30.34,South,180,0.7,2.2,94,0.00,,,0.00,pywws,2014-02-11 10:34:00,
2014-02-11 05:39:00,3.6,2.2,30.35,South,180,0.0,0.7,94,0.00,,,0.00,pywws,2014-02-11 10:39:00,
2014-02-11 05:45:00,3.4,2.0,30.35,NE,45,0.0,1.6,94,0.00,,,0.00,pywws,2014-02-11 10:45:00,
2014-02-11 05:50:00,3.2,1.9,30.35,SE,135,0.7,1.6,94,0.00,,,0.00,pywws,2014-02-11 10:50:00,
2014-02-11 05:56:00,3.2,1.9,30.35,SE,135,1.6,2.2,94,0.00,,,0.00,pywws,2014-02-11 10:56:00,
2014-02-11 06:02:00,3.0,1.7,30.36,East,90,1.6,3.1,94,0.00,,,0.00,pywws,2014-02-11 11:02:00,
2014-02-11 06:08:00,2.8,1.5,30.36,South,180,1.6,2.2,94,0.00,,,0.00,pywws,2014-02-11 11:08:00,
2014-02-11 06:15:00,3.0,1.5,30.36,South,180,1.6,2.2,93,0.00,,,0.00,pywws,2014-02-11 11:15:00,
2014-02-11 06:21:00,2.8,1.3,30.36,West,270,0.7,3.1,93,0.00,,,0.00,pywws,2014-02-11 11:21:00,
2014-02-11 06:28:00,3.0,1.2,30.36,SE,135,0.7,1.6,92,0.00,,,0.00,pywws,2014-02-11 11:28:00,
2014-02-11 06:33:00,3.0,1.2,30.36,South,180,0.7,2.2,92,0.00,,,0.00,pywws,2014-02-11 11:33:00,
2014-02-11 06:38:00,2.8,0.8,30.36,South,180,0.7,2.2,91,0.00,,,0.00,pywws,2014-02-11 11:38:00,
2014-02-11 06:44:00,2.5,0.2,30.36,South,180,1.6,3.8,90,0.00,,,0.00,pywws,2014-02-11 11:44:00,
2014-02-11 06:50:00,2.7,0.4,30.37,East,90,0.0,0.7,90,0.00,,,0.00,pywws,2014-02-11 11:50:00,
2014-02-11 06:56:00,2.5,0.2,30.37,SW,225,0.0,0.0,90,0.00,,,0.00,pywws,2014-02-11 11:56:00,
2014-02-11 07:02:00,2.1,-0.4,30.37,SE,135,0.0,0.0,89,0.00,,,0.00,pywws,2014-02-11 12:02:00,
2014-02-11 07:08:00,2.1,-0.4,30.37,South,180,0.0,2.2,89,0.00,,,0.00,pywws,2014-02-11 12:08:00,
2014-02-11 07:16:00,2.3,0.1,30.38,SW,225,0.7,1.6,90,0.00,,,0.00,pywws,2014-02-11 12:16:00,
2014-02-11 07:21:00,2.3,0.1,30.38,West,270,0.0,1.6,90,0.00,,,0.00,pywws,2014-02-11 12:21:00,
2014-02-11 07:26:00,2.1,-0.1,30.38,SE,135,0.0,0.0,90,0.00,,,0.00,pywws,2014-02-11 12:26:00,
2014-02-11 07:32:00,2.1,-0.1,30.39,SE,135,0.7,2.2,90,0.00,,,0.00,pywws,2014-02-11 12:32:00,
2014-02-11 07:38:00,2.1,-0.1,30.39,South,180,0.7,1.6,90,0.00,,,0.00,pywws,2014-02-11 12:38:00,
2014-02-11 07:45:00,2.3,0.1,30.39,SE,135,0.7,1.6,90,0.00,,,0.00,pywws,2014-02-11 12:45:00,
2014-02-11 07:50:00,2.7,0.4,30.39,SE,135,0.0,0.7,90,0.00,,,0.00,pywws,2014-02-11 12:50:00,
2014-02-11 07:56:00,2.8,0.6,30.39,SE,135,0.0,1.6,90,0.00,,,0.00,pywws,2014-02-11 12:56:00,
2014-02-11 08:02:00,2.8,0.6,30.40,SE,135,0.0,0.0,90,0.00,,,0.00,pywws,2014-02-11 13:02:00,
2014-02-11 08:07:00,3.0,0.8,30.40,SE,135,0.0,0.0,90,0.00,,,0.00,pywws,2014-02-11 13:07:00,
2014-02-11 08:12:00,3.0,0.8,30.40,North,0,0.0,0.7,90,0.00,,,0.00,pywws,2014-02-11 13:12:00,
2014-02-11 08:18:00,3.0,0.8,30.40,North,0,0.0,0.7,90,0.00,,,0.00,pywws,2014-02-11 13:18:00,
2014-02-11 08:23:00,3.2,0.7,30.40,NW,315,0.0,1.6,89,0.00,,,0.00,pywws,2014-02-11 13:23:00,
2014-02-11 08:29:00,3.6,0.8,30.40,North,0,0.7,2.2,88,0.00,,,0.00,pywws,2014-02-11 13:29:00,
2014-02-11 08:34:00,4.1,1.4,30.40,North,0,0.7,2.2,88,0.00,,,0.00,pywws,2014-02-11 13:34:00,
2014-02-11 08:40:00,6.6,3.6,30.41,NE,45,0.7,1.6,87,0.00,,,0.00,pywws,2014-02-11 13:40:00,
2014-02-11 08:46:00,9.3,5.7,30.40,North,0,2.2,3.1,85,0.00,,,0.00,pywws,2014-02-11 13:46:00,
2014-02-11 08:52:00,12.6,6.5,30.41,North,0,1.6,3.8,76,0.00,,,0.00,pywws,2014-02-11 13:52:00,
2014-02-11 08:59:00,12.7,5.1,30.41,NNW,338,2.2,3.8,71,0.00,,,0.00,pywws,2014-02-11 13:59:00,
2014-02-11 09:05:00,12.7,4.2,30.41,NW,315,1.6,3.1,68,0.00,,,0.00,pywws,2014-02-11 14:05:00,
2014-02-11 09:10:00,13.8,4.6,30.41,North,0,0.7,1.6,66,0.00,,,0.00,pywws,2014-02-11 14:10:00,
2014-02-11 09:16:00,14.5,4.6,30.41,NW,315,3.1,4.5,64,0.00,,,0.00,pywws,2014-02-11 14:16:00,
2014-02-11 09:21:00,13.3,2.7,30.42,NW,315,3.1,3.8,62,0.00,,,0.00,pywws,2014-02-11 14:21:00,
2014-02-11 09:26:00,14.2,3.2,30.42,NW,315,3.8,6.0,61,0.00,,,0.00,pywws,2014-02-11 14:26:00,
2014-02-11 09:32:00,15.3,3.9,30.42,NW,315,1.6,3.1,60,0.00,,,0.00,pywws,2014-02-11 14:32:00,
2014-02-11 09:38:00,15.3,3.2,30.42,West,270,2.2,4.5,58,0.00,,,0.00,pywws,2014-02-11 14:38:00,
2014-02-11 09:44:00,13.6,2.0,30.43,NW,315,3.8,6.9,59,0.00,,,0.00,pywws,2014-02-11 14:44:00,
2014-02-11 09:50:00,13.6,2.4,30.43,NW,315,3.1,6.0,60,0.00,,,0.00,pywws,2014-02-11 14:50:00,
2014-02-11 09:56:00,13.8,2.5,30.43,NW,315,3.1,5.4,60,0.00,,,0.00,pywws,2014-02-11 14:56:00,
2014-02-11 10:02:00,14.0,2.0,30.43,North,0,3.8,8.3,58,0.00,,,0.00,pywws,2014-02-11 15:02:00,
2014-02-11 10:08:00,14.0,2.7,30.43,NW,315,2.2,3.8,60,0.00,,,0.00,pywws,2014-02-11 15:08:00,
2014-02-11 10:14:00,16.3,3.0,30.44,North,0,2.2,3.8,55,0.00,,,0.00,pywws,2014-02-11 15:14:00,
2014-02-11 10:20:00,16.5,2.8,30.43,NW,315,2.2,4.5,54,0.00,,,0.00,pywws,2014-02-11 15:20:00,
2014-02-11 10:26:00,16.5,2.0,30.44,North,0,3.1,6.0,52,0.00,,,0.00,pywws,2014-02-11 15:26:00,
2014-02-11 10:32:00,16.0,1.9,30.44,NW,315,2.2,4.5,53,0.00,,,0.00,pywws,2014-02-11 15:32:00,
2014-02-11 10:39:00,14.7,1.1,30.44,NW,315,3.8,6.0,54,0.00,,,0.00,pywws,2014-02-11 15:39:00,
2014-02-11 10:46:00,14.4,1.2,30.44,NW,315,4.5,8.3,55,0.00,,,0.00,pywws,2014-02-11 15:46:00,
2014-02-11 10:51:00,14.5,1.7,30.44,North,0,4.5,7.6,56,0.00,,,0.00,pywws,2014-02-11 15:51:00,
2014-02-11 10:57:00,15.1,1.9,30.44,North,0,6.9,11.4,55,0.00,,,0.00,pywws,2014-02-11 15:57:00,
2014-02-11 11:02:00,14.9,2.1,30.44,North,0,3.8,5.4,56,0.00,,,0.00,pywws,2014-02-11 16:02:00,
2014-02-11 11:08:00,15.8,2.5,30.44,West,270,2.2,6.0,55,0.00,,,0.00,pywws,2014-02-11 16:08:00,
2014-02-11 11:14:00,15.1,1.9,30.44,North,0,5.4,6.9,55,0.00,,,0.00,pywws,2014-02-11 16:14:00,
2014-02-11 11:20:00,15.8,2.5,30.44,North,0,3.8,7.6,55,0.00,,,0.00,pywws,2014-02-11 16:20:00,
2014-02-11 11:27:00,16.0,1.5,30.44,NW,315,6.0,9.2,52,0.00,,,0.00,pywws,2014-02-11 16:27:00,
2014-02-11 11:33:00,16.5,2.0,30.44,NW,315,3.8,6.9,52,0.00,,,0.00,pywws,2014-02-11 16:33:00,
2014-02-11 11:38:00,16.0,1.5,30.43,NW,315,3.8,6.0,52,0.00,,,0.00,pywws,2014-02-11 16:38:00,
2014-02-11 11:44:00,16.2,1.7,30.44,North,0,3.8,6.0,52,0.00,,,0.00,pywws,2014-02-11 16:44:00,
2014-02-11 11:51:00,15.4,1.4,30.43,NW,315,5.4,7.6,53,0.00,,,0.00,pywws,2014-02-11 16:51:00,
2014-02-11 11:57:00,16.2,2.1,30.43,North,0,3.1,4.5,53,0.00,,,0.00,pywws,2014-02-11 16:57:00,
2014-02-11 12:03:00,17.1,2.1,30.43,NW,315,3.1,4.5,51,0.00,,,0.00,pywws,2014-02-11 17:03:00,
2014-02-11 12:10:00,17.2,2.3,30.43,North,0,3.8,6.9,51,0.00,,,0.00,pywws,2014-02-11 17:10:00,
2014-02-11 12:16:00,16.5,1.6,30.43,North,0,3.1,7.6,51,0.00,,,0.00,pywws,2014-02-11 17:16:00,
2014-02-11 12:22:00,16.0,1.9,30.43,NW,315,3.1,5.4,53,0.00,,,0.00,pywws,2014-02-11 17:22:00,
2014-02-11 12:27:00,15.8,1.3,30.43,NW,315,6.0,9.8,52,0.00,,,0.00,pywws,2014-02-11 17:27:00,
2014-02-11 12:34:00,16.0,1.9,30.43,NW,315,3.1,5.4,53,0.00,,,0.00,pywws,2014-02-11 17:34:00,
2014-02-11 12:39:00,15.1,1.1,30.43,NW,315,3.1,5.4,53,0.00,,,0.00,pywws,2014-02-11 17:39:00,
2014-02-11 12:46:00,15.4,1.4,30.42,North,0,3.8,6.0,53,0.00,,,0.00,pywws,2014-02-11 17:46:00,
2014-02-11 12:51:00,15.4,1.4,30.43,North,0,3.8,7.6,53,0.00,,,0.00,pywws,2014-02-11 17:51:00,
2014-02-11 12:57:00,14.9,1.7,30.42,North,0,2.2,3.8,55,0.00,,,0.00,pywws,2014-02-11 17:57:00,
2014-02-11 13:02:00,15.1,1.5,30.43,NE,45,3.1,6.9,54,0.00,,,0.00,pywws,2014-02-11 18:02:00,
2014-02-11 13:08:00,14.9,1.3,30.43,NW,315,3.1,6.0,54,0.00,,,0.00,pywws,2014-02-11 18:08:00,
2014-02-11 13:14:00,14.0,0.1,30.43,North,0,7.6,11.4,53,0.00,,,0.00,pywws,2014-02-11 18:14:00,
2014-02-11 13:20:00,14.0,0.5,30.43,NW,315,5.4,9.8,54,0.00,,,0.00,pywws,2014-02-11 18:20:00,
2014-02-11 13:26:00,13.8,-0.1,30.43,North,0,7.6,10.7,53,0.00,,,0.00,pywws,2014-02-11 18:26:00,
2014-02-11 13:32:00,12.9,-0.6,30.43,NW,315,4.5,9.2,54,0.00,,,0.00,pywws,2014-02-11 18:32:00,
2014-02-11 13:39:00,14.2,0.6,30.43,NE,45,4.5,8.3,54,0.00,,,0.00,pywws,2014-02-11 18:39:00,
2014-02-11 13:44:00,14.4,0.0,30.43,North,0,6.9,12.1,52,0.00,,,0.00,pywws,2014-02-11 18:44:00,
2014-02-11 13:50:00,14.7,0.7,30.43,North,0,4.5,6.0,53,0.00,,,0.00,pywws,2014-02-11 18:50:00,
2014-02-11 13:56:00,14.2,-0.6,30.43,North,0,5.4,9.2,51,0.00,,,0.00,pywws,2014-02-11 18:56:00,
2014-02-11 14:02:00,14.4,0.0,30.43,NW,315,5.4,8.3,52,0.00,,,0.00,pywws,2014-02-11 19:02:00,
2014-02-11 14:08:00,14.7,-0.1,30.43,North,0,5.4,9.8,51,0.00,,,0.00,pywws,2014-02-11 19:08:00,
2014-02-11 14:14:00,14.5,-0.3,30.43,North,0,4.5,6.9,51,0.00,,,0.00,pywws,2014-02-11 19:14:00,
2014-02-11 14:20:00,14.2,-1.0,30.43,West,270,5.4,10.7,50,0.00,,,0.00,pywws,2014-02-11 19:20:00,
2014-02-11 14:26:00,13.8,-0.9,30.43,North,0,6.9,11.4,51,0.00,,,0.00,pywws,2014-02-11 19:26:00,
2014-02-11 14:32:00,13.8,-0.5,30.43,North,0,3.1,6.0,52,0.00,,,0.00,pywws,2014-02-11 19:32:00,
2014-02-11 14:38:00,13.6,-1.1,30.43,NW,315,6.0,9.2,51,0.00,,,0.00,pywws,2014-02-11 19:38:00,
2014-02-11 14:44:00,13.6,-0.7,30.43,North,0,4.5,6.9,52,0.00,,,0.00,pywws,2014-02-11 19:44:00,
2014-02-11 14:51:00,14.0,-0.3,30.43,North,0,3.8,6.9,52,0.00,,,0.00,pywws,2014-02-11 19:51:00,
2014-02-11 14:56:00,13.6,-1.1,30.44,NE,45,5.4,7.6,51,0.00,,,0.00,pywws,2014-02-11 19:56:00,
2014-02-11 15:02:00,12.6,-1.7,30.44,North,0,4.5,7.6,52,0.00,,,0.00,pywws,2014-02-11 20:02:00,
2014-02-11 15:08:00,12.7,-1.1,30.44,NW,315,4.5,6.0,53,0.00,,,0.00,pywws,2014-02-11 20:08:00,
2014-02-11 15:15:00,12.4,-1.5,30.45,NW,315,5.4,9.2,53,0.00,,,0.00,pywws,2014-02-11 20:15:00,
2014-02-11 15:20:00,12.9,-1.0,30.44,NW,315,3.8,6.0,53,0.00,,,0.00,pywws,2014-02-11 20:20:00,
2014-02-11 15:26:00,13.5,-0.4,30.45,North,0,3.8,6.0,53,0.00,,,0.00,pywws,2014-02-11 20:26:00,
2014-02-11 15:32:00,14.0,-0.3,30.45,North,0,4.5,8.3,52,0.00,,,0.00,pywws,2014-02-11 20:32:00,
2014-02-11 15:38:00,14.0,-0.8,30.45,North,0,6.9,9.2,51,0.00,,,0.00,pywws,2014-02-11 20:38:00,
2014-02-11 15:44:00,14.5,0.2,30.45,North,0,3.8,7.6,52,0.00,,,0.00,pywws,2014-02-11 20:44:00,
2014-02-11 15:50:00,14.4,-0.4,30.45,North,0,5.4,8.3,51,0.00,,,0.00,pywws,2014-02-11 20:50:00,
2014-02-11 15:56:00,13.5,-0.4,30.46,North,0,4.5,6.0,53,0.00,,,0.00,pywws,2014-02-11 20:56:00,
2014-02-11 16:03:00,12.9,-1.4,30.46,North,0,5.4,9.2,52,0.00,,,0.00,pywws,2014-02-11 21:03:00,
2014-02-11 16:08:00,12.7,-0.7,30.47,North,0,4.5,8.3,54,0.00,,,0.00,pywws,2014-02-11 21:08:00,
2014-02-11 16:15:00,11.7,-1.7,30.47,North,0,8.3,11.4,54,0.00,,,0.00,pywws,2014-02-11 21:15:00,
2014-02-11 16:20:00,11.5,-1.5,30.47,NW,315,4.5,8.3,55,0.00,,,0.00,pywws,2014-02-11 21:20:00,
2014-02-11 16:26:00,11.5,-1.5,30.47,North,0,4.5,7.6,55,0.00,,,0.00,pywws,2014-02-11 21:26:00,
2014-02-11 16:32:00,10.8,-2.2,30.47,North,0,6.9,12.1,55,0.00,,,0.00,pywws,2014-02-11 21:32:00,
2014-02-11 16:39:00,10.6,-2.0,30.47,North,0,3.8,6.9,56,0.00,,,0.00,pywws,2014-02-11 21:39:00,
2014-02-11 16:44:00,10.0,-2.1,30.48,NE,45,5.4,9.2,57,0.00,,,0.00,pywws,2014-02-11 21:44:00,
2014-02-11 16:50:00,9.5,-2.3,30.48,North,0,4.5,8.3,58,0.00,,,0.00,pywws,2014-02-11 21:50:00,
2014-02-11 16:56:00,9.3,-2.1,30.48,North,0,6.9,15.2,59,0.00,,,0.00,pywws,2014-02-11 21:56:00,
2014-02-11 17:03:00,9.3,-2.1,30.49,NW,315,5.4,8.3,59,0.00,,,0.00,pywws,2014-02-11 22:03:00,
2014-02-11 17:08:00,8.6,-2.4,30.49,NW,315,3.1,6.0,60,0.00,,,0.00,pywws,2014-02-11 22:08:00,
2014-02-11 17:13:00,8.1,-2.6,30.49,North,0,4.5,9.2,61,0.00,,,0.00,pywws,2014-02-11 22:13:00,
2014-02-11 17:19:00,7.9,-2.7,30.50,North,0,3.8,8.3,61,0.00,,,0.00,pywws,2014-02-11 22:19:00,
2014-02-11 17:24:00,7.7,-2.6,30.50,North,0,6.0,8.3,62,0.00,,,0.00,pywws,2014-02-11 22:24:00,
2014-02-11 17:31:00,7.7,-2.2,30.50,North,0,3.1,7.6,63,0.00,,,0.00,pywws,2014-02-11 22:31:00,
2014-02-11 17:36:00,7.5,-2.4,30.51,North,0,3.1,5.4,63,0.00,,,0.00,pywws,2014-02-11 22:36:00,
2014-02-11 17:42:00,7.3,-2.6,30.51,North,0,2.2,4.5,63,0.00,,,0.00,pywws,2014-02-11 22:42:00,
2014-02-11 17:48:00,7.2,-2.7,30.51,NW,315,2.2,3.8,63,0.00,,,0.00,pywws,2014-02-11 22:48:00,
2014-02-11 17:54:00,7.0,-2.9,30.51,WNW,292,2.2,4.5,63,0.00,,,0.00,pywws,2014-02-11 22:54:00,
2014-02-11 18:00:00,6.8,-3.1,30.51,West,270,2.2,3.8,63,0.00,,,0.00,pywws,2014-02-11 23:00:00,
2014-02-11 18:06:00,6.6,-3.3,30.52,NW,315,2.2,3.8,63,0.00,,,0.00,pywws,2014-02-11 23:06:00,
2014-02-11 18:12:00,6.4,-3.4,30.52,NW,315,1.6,3.1,63,0.00,,,0.00,pywws,2014-02-11 23:12:00,
2014-02-11 18:19:00,6.3,-3.6,30.53,NW,315,0.0,2.2,63,0.00,,,0.00,pywws,2014-02-11 23:19:00,
2014-02-11 18:24:00,6.3,-3.3,30.52,North,0,0.0,0.7,64,0.00,,,0.00,pywws,2014-02-11 23:24:00,
2014-02-11 18:29:00,6.3,-3.3,30.52,North,0,0.0,1.6,64,0.00,,,0.00,pywws,2014-02-11 23:29:00,
2014-02-11 18:35:00,6.1,-3.4,30.53,NW,315,1.6,3.1,64,0.00,,,0.00,pywws,2014-02-11 23:35:00,
2014-02-11 18:40:00,6.3,-3.6,30.53,NW,315,0.0,1.6,63,0.00,,,0.00,pywws,2014-02-11 23:40:00,
2014-02-11 18:46:00,6.1,-3.8,30.53,North,0,0.0,0.0,63,0.00,,,0.00,pywws,2014-02-11 23:46:00,
2014-02-11 18:52:00,5.5,-4.3,30.53,SW,225,0.0,0.0,63,0.00,,,0.00,pywws,2014-02-11 23:52:00,
2014-02-11 18:57:00,5.4,-4.1,30.53,SE,135,1.6,2.2,64,0.00,,,0.00,pywws,2014-02-11 23:57:00,
2014-02-11 19:03:00,5.4,-4.1,30.53,East,90,0.0,0.7,64,0.00,,,0.00,pywws,2014-02-12 00:03:00,
2014-02-11 19:08:00,5.5,-3.6,30.53,NE,45,0.0,0.7,65,0.00,,,0.00,pywws,2014-02-12 00:08:00,
2014-02-11 19:14:00,5.5,-4.0,30.54,North,0,0.0,1.6,64,0.00,,,0.00,pywws,2014-02-12 00:14:00,
2014-02-11 19:20:00,5.4,-4.1,30.54,East,90,0.0,0.0,64,0.00,,,0.00,pywws,2014-02-12 00:20:00,
2014-02-11 19:26:00,5.4,-3.8,30.54,East,90,0.7,1.6,65,0.00,,,0.00,pywws,2014-02-12 00:26:00,
2014-02-11 19:32:00,5.4,-3.8,30.54,SE,135,0.7,1.6,65,0.00,,,0.00,pywws,2014-02-12 00:32:00,
2014-02-11 19:38:00,5.4,-3.8,30.54,East,90,0.7,2.2,65,0.00,,,0.00,pywws,2014-02-12 00:38:00,
2014-02-11 19:44:00,5.4,-3.8,30.55,East,90,0.0,0.7,65,0.00,,,0.00,pywws,2014-02-12 00:44:00,
2014-02-11 19:49:00,5.2,-4.0,30.54,East,90,0.0,0.0,65,0.00,,,0.00,pywws,2014-02-12 00:49:00,
2014-02-11 19:54:00,5.0,-4.2,30.55,SE,135,0.7,1.6,65,0.00,,,0.00,pywws,2014-02-12 00:54:00,
2014-02-11 20:01:00,5.0,-3.8,30.55,East,90,0.7,2.2,66,0.00,,,0.00,pywws,2014-02-12 01:01:00,
2014-02-11 20:06:00,4.8,-4.0,30.55,North,0,1.6,3.8,66,0.00,,,0.00,pywws,2014-02-12 01:06:00,
2014-02-11 20:12:00,4.5,-4.7,30.55,South,180,0.7,1.6,65,0.00,,,0.00,pywws,2014-02-12 01:12:00,
2014-02-11 20:19:00,4.1,-4.7,30.55,South,180,0.7,1.6,66,0.00,,,0.00,pywws,2014-02-12 01:19:00,
2014-02-11 20:24:00,3.7,-5.0,30.55,West,270,0.0,0.7,66,0.00,,,0.00,pywws,2014-02-12 01:24:00,
2014-02-11 20:30:00,3.4,-5.4,30.56,SE,135,0.0,0.0,66,0.00,,,0.00,pywws,2014-02-12 01:30:00,
2014-02-11 20:36:00,3.2,-5.2,30.56,South,180,0.0,0.0,67,0.00,,,0.00,pywws,2014-02-12 01:36:00,
2014-02-11 20:42:00,3.0,-5.1,30.55,NE,45,0.0,0.0,68,0.00,,,0.00,pywws,2014-02-12 01:42:00,
2014-02-11 20:48:00,3.0,-5.1,30.56,NE,45,0.0,0.7,68,0.00,,,0.00,pywws,2014-02-12 01:48:00,
2014-02-11 20:54:00,3.0,-5.4,30.56,NE,45,0.0,0.0,67,0.00,,,0.00,pywws,2014-02-12 01:54:00,
2014-02-11 21:00:00,3.0,-5.1,30.56,SE,135,0.0,0.0,68,0.00,,,0.00,pywws,2014-02-12 02:00:00,
2014-02-11 21:05:00,2.8,-5.3,30.57,North,0,0.0,0.7,68,0.00,,,0.00,pywws,2014-02-12 02:05:00,
2014-02-11 21:10:00,3.0,-5.1,30.57,East,90,0.0,1.6,68,0.00,,,0.00,pywws,2014-02-12 02:10:00,
2014-02-11 21:16:00,2.8,-5.3,30.57,SE,135,0.0,0.0,68,0.00,,,0.00,pywws,2014-02-12 02:16:00,
2014-02-11 21:22:00,2.3,-5.8,30.57,SE,135,0.0,1.6,68,0.00,,,0.00,pywws,2014-02-12 02:22:00,
2014-02-11 21:28:00,2.7,-5.2,30.58,SE,135,0.7,1.6,69,0.00,,,0.00,pywws,2014-02-12 02:28:00,
2014-02-11 21:34:00,2.7,-5.2,30.57,SE,135,0.7,2.2,69,0.00,,,0.00,pywws,2014-02-12 02:34:00,
2014-02-11 21:40:00,2.5,-5.3,30.58,SE,135,0.7,2.2,69,0.00,,,0.00,pywws,2014-02-12 02:40:00,
2014-02-11 21:46:00,2.3,-5.5,30.58,SE,135,0.7,2.2,69,0.00,,,0.00,pywws,2014-02-12 02:46:00,
2014-02-11 21:52:00,2.3,-5.5,30.58,South,180,0.0,0.0,69,0.00,,,0.00,pywws,2014-02-12 02:52:00,
2014-02-11 21:58:00,2.3,-5.2,30.58,East,90,0.7,1.6,70,0.00,,,0.00,pywws,2014-02-12 02:58:00,
2014-02-11 22:04:00,2.1,-5.4,30.58,SE,135,1.6,2.2,70,0.00,,,0.00,pywws,2014-02-12 03:04:00,
2014-02-11 22:10:00,1.9,-5.6,30.57,SE,135,0.0,1.6,70,0.00,,,0.00,pywws,2014-02-12 03:10:00,
2014-02-11 22:16:00,1.9,-5.6,30.58,SE,135,0.7,1.6,70,0.00,,,0.00,pywws,2014-02-12 03:16:00,
2014-02-11 22:22:00,2.1,-5.1,30.58,SE,135,0.7,1.6,71,0.00,,,0.00,pywws,2014-02-12 03:22:00,
2014-02-11 22:28:00,1.6,-5.9,30.58,SE,135,1.6,2.2,70,0.00,,,0.00,pywws,2014-02-12 03:28:00,
2014-02-11 22:34:00,1.2,-6.0,30.58,SE,135,1.6,2.2,71,0.00,,,0.00,pywws,2014-02-12 03:34:00,
2014-02-11 22:40:00,1.4,-5.5,30.58,SE,135,1.6,2.2,72,0.00,,,0.00,pywws,2014-02-12 03:40:00,
2014-02-11 22:46:00,1.2,-6.0,30.58,SE,135,1.6,2.2,71,0.00,,,0.00,pywws,2014-02-12 03:46:00,
2014-02-11 22:51:00,1.2,-5.7,30.58,SE,135,1.6,2.2,72,0.00,,,0.00,pywws,2014-02-12 03:51:00,
2014-02-11 22:57:00,0.9,-6.3,30.58,SE,135,0.7,3.1,71,0.00,,,0.00,pywws,2014-02-12 03:57:00,
2014-02-11 23:03:00,0.7,-6.2,30.58,SE,135,1.6,3.1,72,0.00,,,0.00,pywws,2014-02-12 04:03:00,
2014-02-11 23:08:00,0.7,-5.9,30.58,SE,135,0.7,2.2,73,0.00,,,0.00,pywws,2014-02-12 04:08:00,
2014-02-11 23:14:00,0.7,-5.9,30.59,SE,135,1.6,2.2,73,0.00,,,0.00,pywws,2014-02-12 04:14:00,
2014-02-11 23:20:00,0.5,-6.1,30.59,SE,135,2.2,3.1,73,0.00,,,0.00,pywws,2014-02-12 04:20:00,
2014-02-11 23:26:00,0.1,-6.7,30.59,SE,135,1.6,3.1,72,0.00,,,0.00,pywws,2014-02-12 04:26:00,
2014-02-11 23:32:00,0.1,-6.1,30.59,SE,135,1.6,2.2,74,0.00,,,0.00,pywws,2014-02-12 04:32:00,
2014-02-11 23:38:00,0.3,-6.0,30.59,SE,135,1.6,2.2,74,0.00,,,0.00,pywws,2014-02-12 04:38:00,
2014-02-11 23:44:00,0.0,-6.6,30.60,SE,135,0.7,2.2,73,0.00,,,0.00,pywws,2014-02-12 04:44:00,
2014-02-11 23:50:00,0.0,-6.6,30.60,SE,135,1.6,2.2,73,0.00,,,0.00,pywws,2014-02-12 04:50:00,
2014-02-11 23:56:00,-0.2,-6.5,30.60,SE,135,1.6,2.2,74,0.00,,,0.00,pywws,2014-02-12 04:56:00,